Time;durP1;ratioP1;P1;durP2;ratioP2;P2;SDS_P1;SDS_P2;PMS_P1;PMS_P2;Temp;Humidity;BMP_temperature;BMP_pressure;BME280_temperature;BME280_humidity;BME280_pressure;Samples;Min_cycle;Max_cycle;Signal;HPM_P1;HPM_P2
2023/02/10 00:01:23;;;;;;;0.35;0.35;;;;;;;5.85;100.00;101747.53;7398017;19;20014;-91
2023/02/10 00:03:50;;;;;;;3.35;1.35;;;;;;;6.01;100.00;101756.19;7395254;19;20015;-92
2023/02/10 00:06:18;;;;;;;1.33;1.02;;;;;;;5.31;100.00;101753.44;7396798;19;20019;-92
2023/02/10 00:08:49;;;;;;;0.20;0.20;;;;;;;5.57;100.00;101758.56;7396855;19;20010;-92
2023/02/10 00:11:15;;;;;;;0.65;0.55;;;;;;;5.01;100.00;101764.84;7400517;19;20048;-91
2023/02/10 00:13:42;;;;;;;0.98;0.95;;;;;;;4.98;100.00;101756.56;7397891;19;20050;-91
2023/02/10 00:16:11;;;;;;;0.60;0.60;;;;;;;4.07;100.00;101765.25;7400285;19;20477;-91
2023/02/10 00:18:37;;;;;;;1.17;0.98;;;;;;;3.28;100.00;101773.25;7400175;19;20010;-91
2023/02/10 00:21:12;;;;;;;1.45;0.50;;;;;;;4.58;100.00;101768.63;7404308;19;20024;-92
2023/02/10 00:23:38;;;;;;;1.13;1.13;;;;;;;4.42;100.00;101766.19;7398613;19;20018;-91
2023/02/10 00:26:07;;;;;;;13.25;0.85;;;;;;;4.07;100.00;101770.75;7398351;19;20010;-91
2023/02/10 00:28:34;;;;;;;0.88;0.43;;;;;;;4.09;100.00;101766.44;7398424;19;20018;-91
2023/02/10 00:31:12;;;;;;;13.25;1.13;;;;;;;3.73;100.00;101761.84;7401557;19;20453;-84
2023/02/10 00:33:39;;;;;;;4.38;0.57;;;;;;;3.99;100.00;101767.16;7392796;19;20011;-84
2023/02/10 00:36:07;;;;;;;19.42;0.93;;;;;;;4.40;100.00;101773.28;7401138;19;20010;-96
2023/02/10 00:38:34;;;;;;;0.38;0.38;;;;;;;4.02;100.00;101773.84;7399569;19;20027;-96
2023/02/10 00:41:09;;;;;;;4.85;0.82;;;;;;;4.37;100.00;101772.09;7404435;19;20499;-96
2023/02/10 00:43:36;;;;;;;0.20;0.20;;;;;;;3.71;100.00;101764.19;7398262;19;20398;-96
2023/02/10 00:46:03;;;;;;;1.65;0.90;;;;;;;4.26;100.00;101757.47;7398271;19;20014;-96
2023/02/10 00:48:29;;;;;;;0.70;0.63;;;;;;;4.01;100.00;101756.53;7397429;19;20018;-96
2023/02/10 00:50:55;;;;;;;0.30;0.30;;;;;;;4.23;100.00;101746.41;7396672;19;20014;-96
2023/02/10 00:53:22;;;;;;;1.35;1.25;;;;;;;3.38;100.00;101750.56;7397327;19;20010;-96
2023/02/10 00:55:48;;;;;;;0.47;0.40;;;;;;;3.12;100.00;101747.97;7398698;19;20342;-96
2023/02/10 00:58:16;;;;;;;0.63;0.63;;;;;;;4.08;100.00;101739.22;7398906;19;20017;-96
2023/02/10 01:00:42;;;;;;;0.52;0.52;;;;;;;3.70;100.00;101735.06;7402090;19;20018;-96
2023/02/10 01:03:08;;;;;;;3.22;1.85;;;;;;;3.98;100.00;101734.47;7396371;19;20010;-95
2023/02/10 01:05:35;;;;;;;1.38;0.60;;;;;;;4.25;100.00;101742.09;7397356;19;20066;-96
2023/02/10 01:08:01;;;;;;;1.55;1.35;;;;;;;4.16;100.00;101747.16;7394136;19;20003;-96
2023/02/10 01:10:28;;;;;;;0.57;0.57;;;;;;;4.13;100.00;101745.19;7399121;19;20019;-95
2023/02/10 01:12:54;;;;;;;0.70;0.70;;;;;;;4.15;100.00;101742.84;7396148;19;20022;-96
2023/02/10 01:15:20;;;;;;;1.58;1.48;;;;;;;3.41;100.00;101741.53;7398045;19;20429;-96
2023/02/10 01:17:46;;;;;;;1.02;0.57;;;;;;;3.33;100.00;101748.94;7402629;19;20019;-96
2023/02/10 01:20:12;;;;;;;2.05;1.08;;;;;;;3.21;100.00;101740.94;7402443;19;20035;-95
2023/02/10 01:22:38;;;;;;;2.60;1.48;;;;;;;2.46;100.00;101749.59;7396308;19;20334;-96
2023/02/10 01:25:05;;;;;;;8.13;1.08;;;;;;;2.25;100.00;101760.31;7396695;19;20011;-95
2023/02/10 01:27:31;;;;;;;5.07;1.27;;;;;;;2.19;100.00;101753.53;7396348;19;20017;-95
2023/02/10 01:29:57;;;;;;;1.48;1.38;;;;;;;2.12;100.00;101756.22;7398634;19;20015;-94
2023/02/10 01:32:24;;;;;;;2.22;1.20;;;;;;;2.06;100.00;101776.91;7395288;19;20011;-96
2023/02/10 01:34:50;;;;;;;0.70;0.70;;;;;;;2.06;100.00;101760.44;7401353;19;20354;-95
2023/02/10 01:37:16;;;;;;;1.50;0.90;;;;;;;2.21;100.00;101759.47;7397484;19;20010;-96
2023/02/10 01:39:42;;;;;;;0.40;0.30;;;;;;;2.09;100.00;101773.44;7402756;19;20010;-95
2023/02/10 01:42:13;;;;;;;0.65;0.25;;;;;;;2.03;100.00;101777.69;7398464;19;20018;-95
2023/02/10 01:44:39;;;;;;;2.90;0.60;;;;;;;2.02;100.00;101765.09;7400371;19;20349;-96
2023/02/10 01:47:06;;;;;;;0.40;0.40;;;;;;;2.06;100.00;101750.25;7395315;19;20017;-96
2023/02/10 01:49:39;;;;;;;5.35;1.05;;;;;;;2.06;100.00;101741.19;7397265;19;20132;-96
2023/02/10 01:52:11;;;;;;;0.60;0.60;;;;;;;2.04;100.00;101744.31;7396453;19;20007;-96
2023/02/10 01:55:08;;;;;;;5.10;0.65;;;;;;;2.05;100.00;101756.91;7399264;19;20031;-96
2023/02/10 01:57:36;;;;;;;0.32;0.32;;;;;;;2.06;100.00;101758.47;7397545;19;20013;-96
2023/02/10 02:00:05;;;;;;;22.80;0.82;;;;;;;2.12;100.00;101772.72;7398741;19;20021;-96
2023/02/10 02:02:39;;;;;;;0.85;0.63;;;;;;;2.18;100.00;101782.22;7397348;19;20015;-96
2023/02/10 02:05:21;;;;;;;0.60;0.60;;;;;;;2.20;100.00;101790.88;7394983;19;20015;-96
2023/02/10 02:07:50;;;;;;;0.68;0.68;;;;;;;2.22;100.00;101777.53;7394356;19;20010;-96
2023/02/10 02:10:16;;;;;;;0.30;0.30;;;;;;;2.19;100.00;101768.09;7398044;19;20023;-96
2023/02/10 02:13:06;;;;;;;0.50;0.50;;;;;;;3.04;100.00;101753.38;7394361;19;20010;-96
2023/02/10 02:15:56;;;;;;;0.52;0.52;;;;;;;4.83;100.00;101749.41;7395514;19;20014;-96
2023/02/10 02:18:39;;;;;;;0.47;0.47;;;;;;;4.23;100.00;101736.16;7395867;19;20015;-95
2023/02/10 02:21:39;;;;;;;1.10;0.52;;;;;;;3.08;100.00;101737.69;7398978;19;20013;-96
2023/02/10 02:25:01;;;;;;;0.30;0.20;;;;;;;3.71;100.00;101725.63;7395589;19;20010;-95
2023/02/10 02:27:42;;;;;;;1.48;1.38;;;;;;;3.37;100.00;101732.44;7392743;19;20053;-95
2023/02/10 02:30:38;;;;;;;0.30;0.30;;;;;;;2.65;100.00;101735.66;7396176;19;20017;-95
2023/02/10 02:33:14;;;;;;;0.75;0.75;;;;;;;2.72;100.00;101723.97;7393697;19;20007;-95
2023/02/10 02:35:49;;;;;;;0.43;0.43;;;;;;;2.59;100.00;101720.69;7395461;19;20454;-95
2023/02/10 02:38:16;;;;;;;1.40;1.35;;;;;;;2.52;100.00;101717.84;7398042;19;20015;-96
2023/02/10 02:40:42;;;;;;;0.52;0.52;;;;;;;2.49;100.00;101704.84;7405344;19;20010;-95
2023/02/10 02:43:08;;;;;;;0.70;0.70;;;;;;;4.46;100.00;101695.28;7393834;19;20021;-96
2023/02/10 02:45:46;;;;;;;0.60;0.60;;;;;;;4.41;100.00;101692.91;7393402;19;20033;-95
2023/02/10 02:48:33;;;;;;;0.20;0.20;;;;;;;2.48;100.00;101692.25;7393603;19;20572;-95
2023/02/10 02:51:14;;;;;;;0.22;0.22;;;;;;;2.21;100.00;101679.75;7399444;19;20023;-95
2023/02/10 02:53:51;;;;;;;;;;;;;;;2.00;100.00;101679.50;7395357;19;20019;-96
2023/02/10 02:56:41;;;;;;;1.20;1.10;;;;;;;1.83;100.00;101671.81;7397925;19;19915;-96
2023/02/10 02:59:29;;;;;;;0.88;0.85;;;;;;;2.16;100.00;101671.88;7391591;19;20018;-96
2023/02/10 03:02:02;;;;;;;0.30;0.30;;;;;;;1.96;100.00;101681.41;7397822;19;20019;-95
2023/02/10 03:04:31;;;;;;;0.32;0.32;;;;;;;5.62;100.00;101668.94;7393593;19;20532;-95
2023/02/10 03:07:00;;;;;;;2.30;1.23;;;;;;;6.13;100.00;101666.47;7394684;19;20015;-96
2023/02/10 03:09:27;;;;;;;0.45;0.45;;;;;;;4.76;100.00;101670.16;7396540;19;20010;-96
2023/02/10 03:11:54;;;;;;;0.38;0.38;;;;;;;4.33;100.00;101674.75;7395122;19;20014;-96
2023/02/10 03:14:20;;;;;;;2.92;0.90;;;;;;;3.96;100.00;101682.50;7396169;19;20010;-95
2023/02/10 03:16:46;;;;;;;0.20;0.20;;;;;;;3.43;100.00;101678.59;7395915;19;20018;-95
2023/02/10 03:19:13;;;;;;;8.95;0.60;;;;;;;2.51;100.00;101685.22;7399407;19;20744;-95
2023/02/10 03:21:39;;;;;;;0.52;0.52;;;;;;;2.11;100.00;101688.66;7395348;19;20045;-95
2023/02/10 03:24:05;;;;;;;0.45;0.45;;;;;;;1.81;100.00;101694.16;7393980;19;20041;-95
2023/02/10 03:26:31;;;;;;;0.65;0.65;;;;;;;1.71;100.00;101688.53;7396007;19;20028;-95
2023/02/10 03:28:57;;;;;;;2.13;1.15;;;;;;;1.60;100.00;101690.31;7395419;19;20007;-95
2023/02/10 03:31:24;;;;;;;0.20;0.20;;;;;;;1.64;100.00;101685.66;7402214;19;20458;-95
2023/02/10 03:33:50;;;;;;;0.57;0.57;;;;;;;1.81;100.00;101683.19;7403016;19;20015;-95
2023/02/10 03:36:16;;;;;;;0.30;0.30;;;;;;;1.59;100.00;101688.72;7418008;19;20018;-96
2023/02/10 03:38:42;;;;;;;6.65;0.65;;;;;;;1.79;100.00;101681.97;7420606;19;20034;-96
2023/02/10 03:41:08;;;;;;;0.40;0.40;;;;;;;1.77;100.00;101673.31;7404979;19;20021;-61
2023/02/10 03:43:34;;;;;;;8.40;0.88;;;;;;;1.69;100.00;101671.63;7396460;19;20015;-61
2023/02/10 03:46:03;;;;;;;0.65;0.65;;;;;;;1.57;100.00;101658.09;7398870;19;20015;-61
2023/02/10 03:48:32;;;;;;;0.70;0.70;;;;;;;1.48;100.00;101650.94;7397045;19;20010;-61
2023/02/10 03:51:00;;;;;;;1.13;1.10;;;;;;;1.48;100.00;101642.69;7402345;19;20010;-62
2023/02/10 03:53:27;;;;;;;0.40;0.40;;;;;;;1.47;100.00;101640.34;7397799;19;20026;-62
2023/02/10 03:55:53;;;;;;;0.90;0.82;;;;;;;1.53;100.00;101653.38;7397116;19;20010;-61
2023/02/10 03:58:19;;;;;;;0.10;0.10;;;;;;;1.61;100.00;101645.22;7397218;19;20014;-61
2023/02/10 04:00:45;;;;;;;0.63;0.63;;;;;;;1.72;100.00;101649.69;7402398;19;20379;-61
2023/02/10 04:03:12;;;;;;;0.65;0.65;;;;;;;1.63;100.00;101643.69;7396328;19;20041;-62
2023/02/10 04:05:38;;;;;;;0.40;0.40;;;;;;;1.47;100.00;101654.84;7397897;19;20011;-62
2023/02/10 04:08:05;;;;;;;0.40;0.40;;;;;;;1.52;100.00;101646.28;7398550;19;20018;-62
2023/02/10 04:10:31;;;;;;;1.10;0.75;;;;;;;1.54;100.00;101643.97;7400878;19;20018;-62
2023/02/10 04:12:58;;;;;;;0.32;0.32;;;;;;;1.42;100.00;101652.44;7396593;19;20082;-62
2023/02/10 04:15:24;;;;;;;0.47;0.47;;;;;;;1.36;100.00;101648.41;7397675;19;20034;-62
2023/02/10 04:17:50;;;;;;;0.20;0.20;;;;;;;1.26;100.00;101653.72;7398098;19;20010;-63
2023/02/10 04:20:17;;;;;;;0.30;0.30;;;;;;;1.23;100.00;101657.22;7400317;19;20024;-62
2023/02/10 04:22:43;;;;;;;0.70;0.70;;;;;;;1.29;100.00;101664.78;7398108;19;20036;-62
2023/02/10 04:25:10;;;;;;;0.30;0.30;;;;;;;1.18;100.00;101669.28;7401650;19;20400;-62
2023/02/10 04:27:36;;;;;;;0.20;0.20;;;;;;;1.28;100.00;101665.13;7397153;19;20022;-62
2023/02/10 04:30:03;;;;;;;0.43;0.43;;;;;;;1.57;100.00;101663.59;7399412;19;20026;-62
2023/02/10 04:32:29;;;;;;;0.13;0.13;;;;;;;1.28;100.00;101663.16;7397036;19;20017;-62
2023/02/10 04:34:55;;;;;;;0.32;0.32;;;;;;;1.65;100.00;101651.53;7396970;19;20011;-62
2023/02/10 04:37:21;;;;;;;0.40;0.40;;;;;;;1.35;100.00;101657.81;7396809;19;20022;-62
2023/02/10 04:39:47;;;;;;;0.60;0.60;;;;;;;1.33;100.00;101660.13;7397721;19;20042;-62
2023/02/10 04:42:14;;;;;;;0.40;0.40;;;;;;;1.63;100.00;101660.16;7396007;19;20010;-62
2023/02/10 04:44:40;;;;;;;5.15;2.05;;;;;;;1.73;100.00;101645.00;7392182;19;20013;-62
2023/02/10 04:47:06;;;;;;;2.90;0.50;;;;;;;2.26;100.00;101640.94;7396305;19;20014;-62
2023/02/10 04:49:32;;;;;;;0.30;0.30;;;;;;;2.33;100.00;101646.53;7397171;19;20041;-62
2023/02/10 04:51:58;;;;;;;0.45;0.45;;;;;;;2.79;100.00;101638.75;7393674;19;20013;-62
2023/02/10 04:54:24;;;;;;;0.30;0.30;;;;;;;2.96;100.00;101644.41;7399062;19;20062;-62
2023/02/10 04:56:51;;;;;;;0.30;0.30;;;;;;;3.03;100.00;101647.22;7397778;19;20332;-62
2023/02/10 04:59:17;;;;;;;0.30;0.20;;;;;;;3.01;100.00;101644.06;7397013;19;20011;-63
2023/02/10 05:01:43;;;;;;;24.00;0.82;;;;;;;3.56;100.00;101641.31;7395820;19;20491;-62
2023/02/10 05:04:09;;;;;;;4.38;0.55;;;;;;;3.19;100.00;101643.41;7393446;19;20007;-62
2023/02/10 05:06:36;;;;;;;0.20;0.20;;;;;;;3.12;100.00;101633.13;7392595;19;20082;-62
2023/02/10 05:09:03;;;;;;;0.40;0.40;;;;;;;3.22;100.00;101637.16;7395379;19;20014;-62
2023/02/10 05:11:29;;;;;;;0.90;0.90;;;;;;;3.18;100.00;101625.31;7394480;19;20071;-63
2023/02/10 05:13:55;;;;;;;0.10;0.10;;;;;;;3.20;100.00;101636.75;7394420;19;20006;-62
2023/02/10 05:16:21;;;;;;;0.77;0.77;;;;;;;3.12;100.00;101644.13;7398642;19;20028;-62
2023/02/10 05:18:47;;;;;;;0.73;0.73;;;;;;;3.18;100.00;101645.38;7397911;19;20014;-62
2023/02/10 05:21:14;;;;;;;2.15;0.70;;;;;;;3.22;100.00;101637.16;7399519;19;20010;-63
2023/02/10 05:23:41;;;;;;;0.73;0.73;;;;;;;3.22;100.00;101628.88;7394633;19;20014;-63
2023/02/10 05:26:07;;;;;;;0.50;0.50;;;;;;;3.29;100.00;101626.19;7394726;19;20023;-62
2023/02/10 05:28:33;;;;;;;0.80;0.52;;;;;;;3.33;100.00;101618.75;7395232;19;20030;-62
2023/02/10 05:31:00;;;;;;;0.60;0.60;;;;;;;3.27;100.00;101614.78;7399211;19;20015;-63
2023/02/10 05:33:26;;;;;;;0.50;0.50;;;;;;;3.37;100.00;101609.34;7393865;19;20014;-63
2023/02/10 05:35:52;;;;;;;1.02;0.50;;;;;;;3.43;100.00;101615.25;7393300;19;20014;-63
2023/02/10 05:38:18;;;;;;;0.52;0.52;;;;;;;3.46;100.00;101614.50;7394814;19;20007;-63
2023/02/10 05:40:44;;;;;;;2.30;0.73;;;;;;;3.41;100.00;101612.91;7398283;19;20015;-63
2023/02/10 05:43:10;;;;;;;0.22;0.22;;;;;;;3.39;100.00;101608.94;7393193;19;20091;-63
2023/02/10 05:45:37;;;;;;;0.40;0.40;;;;;;;2.94;100.00;101619.25;7394252;19;20091;-63
2023/02/10 05:48:03;;;;;;;0.32;0.32;;;;;;;3.25;100.00;101611.63;7396540;19;20459;-63
2023/02/10 05:50:29;;;;;;;0.50;0.50;;;;;;;3.31;100.00;101629.34;7396659;19;20018;-63
2023/02/10 05:52:55;;;;;;;1.95;0.50;;;;;;;3.26;100.00;101622.22;7394255;19;20006;-63
2023/02/10 05:55:22;;;;;;;0.50;0.50;;;;;;;3.24;100.00;101596.25;7398378;19;20015;-63
2023/02/10 05:57:50;;;;;;;0.38;0.38;;;;;;;3.29;100.00;101588.41;7391449;19;20010;-63
2023/02/10 06:00:17;;;;;;;0.40;0.40;;;;;;;3.39;100.00;101578.66;7394842;19;20015;-63
2023/02/10 06:02:43;;;;;;;0.30;0.30;;;;;;;3.41;100.00;101573.53;7393438;19;20007;-63
2023/02/10 06:05:10;;;;;;;10.23;0.68;;;;;;;3.46;100.00;101581.44;7394536;19;20018;-63
2023/02/10 06:07:36;;;;;;;0.55;0.40;;;;;;;3.51;100.00;101583.84;7395581;19;20014;-63
2023/02/10 06:10:02;;;;;;;17.73;0.98;;;;;;;3.58;100.00;101579.16;7393122;19;20456;-63
2023/02/10 06:12:29;;;;;;;0.10;0.10;;;;;;;3.65;100.00;101578.41;7395826;19;20006;-64
2023/02/10 06:14:55;;;;;;;0.82;0.70;;;;;;;3.79;100.00;101570.97;7394138;19;20021;-64
2023/02/10 06:17:21;;;;;;;0.60;0.60;;;;;;;3.87;100.00;101563.53;7397188;19;20026;-63
2023/02/10 06:19:47;;;;;;;1.13;1.02;;;;;;;4.00;100.00;101567.53;7396032;19;20093;-63
2023/02/10 06:22:13;;;;;;;6.22;2.38;;;;;;;4.07;100.00;101569.50;7395124;19;20038;-63
2023/02/10 06:24:41;;;;;;;0.20;0.15;;;;;;;3.99;100.00;101576.97;7394844;19;20333;-64
2023/02/10 06:27:07;;;;;;;1.58;1.48;;;;;;;3.97;100.00;101575.75;7391373;19;20018;-64
2023/02/10 06:29:33;;;;;;;0.77;0.75;;;;;;;3.93;100.00;101573.00;7391104;19;20007;-63
2023/02/10 06:31:59;;;;;;;1.75;1.15;;;;;;;3.99;100.00;101576.16;7391499;19;20021;-63
2023/02/10 06:34:26;;;;;;;31.50;3.63;;;;;;;3.94;100.00;101579.31;7393904;19;20015;-63
2023/02/10 06:36:52;;;;;;;9.05;1.70;;;;;;;3.92;100.00;101582.44;7393759;19;20034;-63
2023/02/10 06:39:18;;;;;;;1.92;1.38;;;;;;;3.85;100.00;101587.94;7393957;19;20002;-64
2023/02/10 06:41:44;;;;;;;15.20;2.40;;;;;;;3.73;100.00;101594.56;7392526;19;20007;-63
2023/02/10 06:44:10;;;;;;;2.53;1.67;;;;;;;3.62;100.00;101590.19;7378388;19;20056;-63
2023/02/10 06:46:36;;;;;;;9.07;1.67;;;;;;;3.82;100.00;101594.22;7392188;19;20015;-63
2023/02/10 06:49:03;;;;;;;1.30;1.30;;;;;;;3.91;100.00;101596.63;7392033;19;20372;-63
2023/02/10 06:51:29;;;;;;;1.10;1.10;;;;;;;4.02;100.00;101602.97;7392898;19;20030;-64
2023/02/10 06:53:55;;;;;;;1.48;0.98;;;;;;;4.08;100.00;101613.22;7393616;19;20340;-64
2023/02/10 06:56:21;;;;;;;0.90;0.90;;;;;;;4.15;100.00;101610.50;7391771;19;20078;-63
2023/02/10 06:58:47;;;;;;;1.95;0.93;;;;;;;4.17;100.00;101619.16;7389077;19;20500;-63
2023/02/10 07:01:17;;;;;;;0.98;0.98;;;;;;;4.24;100.00;101618.41;7394540;19;20022;-63
2023/02/10 07:03:43;;;;;;;0.68;0.68;;;;;;;4.25;100.00;101619.97;7391454;19;20103;-64
2023/02/10 07:06:09;;;;;;;0.95;0.95;;;;;;;4.23;100.00;101625.06;7393117;19;20018;-64
2023/02/10 07:08:36;;;;;;;12.95;1.48;;;;;;;4.30;100.00;101625.91;7395794;19;20027;-63
2023/02/10 07:11:02;;;;;;;2.92;1.23;;;;;;;4.27;100.00;101629.44;7391526;19;20003;-63
2023/02/10 07:13:28;;;;;;;0.20;0.20;;;;;;;4.29;100.00;101624.31;7400369;19;20388;-64
2023/02/10 07:15:54;;;;;;;5.30;1.25;;;;;;;4.35;100.00;101639.28;7402796;19;20014;-64
2023/02/10 07:18:21;;;;;;;1.25;0.43;;;;;;;4.32;100.00;101637.34;7399736;19;20082;-64
2023/02/10 07:20:47;;;;;;;6.13;1.08;;;;;;;4.35;100.00;101639.28;7402554;19;20082;-64
2023/02/10 07:23:13;;;;;;;17.00;1.85;;;;;;;4.43;100.00;101635.41;7398932;19;20021;-63
2023/02/10 07:25:39;;;;;;;2.13;1.08;;;;;;;4.91;100.00;101629.56;7398991;19;20018;-63
2023/02/10 07:28:07;;;;;;;0.80;0.80;;;;;;;4.82;100.00;101629.16;7399304;19;20043;-64
2023/02/10 07:30:34;;;;;;;8.77;1.40;;;;;;;4.79;100.00;101629.91;7402245;19;20269;-64
2023/02/10 07:33:00;;;;;;;0.60;0.60;;;;;;;4.78;100.00;101628.34;7402036;19;20499;-59
2023/02/10 07:35:26;;;;;;;0.93;0.22;;;;;;;4.73;100.00;101621.25;7399162;19;20007;-58
2023/02/10 07:37:52;;;;;;;0.50;0.50;;;;;;;4.76;100.00;101630.72;7397836;19;20010;-58
2023/02/10 07:40:18;;;;;;;1.10;0.52;;;;;;;4.80;100.00;101637.81;7397878;19;20014;-58
2023/02/10 07:42:45;;;;;;;0.28;0.28;;;;;;;4.86;100.00;101624.41;7396481;19;20011;-58
2023/02/10 07:45:31;;;;;;;0.30;0.30;;;;;;;4.94;100.00;101642.53;7396682;19;20018;-58
2023/02/10 07:47:58;;;;;;;1.13;0.30;;;;;;;5.12;100.00;101635.06;7397738;19;20028;-58
2023/02/10 07:50:25;;;;;;;0.95;0.95;;;;;;;5.10;100.00;101631.91;7400374;19;20017;-58
2023/02/10 07:52:52;;;;;;;0.82;0.47;;;;;;;5.14;100.00;101640.97;7401068;19;20014;-58
2023/02/10 07:55:18;;;;;;;1.80;1.52;;;;;;;5.14;100.00;101636.25;7397768;19;20467;-59
2023/02/10 07:57:45;;;;;;;2.00;0.47;;;;;;;5.69;100.00;101636.56;7400352;19;20496;-59
2023/02/10 08:00:14;;;;;;;5.10;0.95;;;;;;;5.73;100.00;101634.59;7400988;19;20006;-58
2023/02/10 08:02:41;;;;;;;1.00;0.30;;;;;;;5.83;100.00;101627.44;7399993;19;20016;-58
2023/02/10 08:05:08;;;;;;;1.05;0.75;;;;;;;5.94;100.00;101628.22;7394906;19;20034;-58
2023/02/10 08:07:35;;;;;;;0.38;0.38;;;;;;;6.11;100.00;101633.69;7398544;19;20427;-58
2023/02/10 08:10:02;;;;;;;2.40;1.00;;;;;;;6.03;100.00;101640.44;7398409;19;20022;-58
2023/02/10 08:12:28;;;;;;;4.60;1.73;;;;;;;6.27;100.00;101640.72;7397542;19;20074;-59
2023/02/10 08:14:54;;;;;;;3.92;0.95;;;;;;;6.56;100.00;101639.41;7397216;19;20014;-59
2023/02/10 08:17:20;;;;;;;1.33;0.85;;;;;;;6.05;100.00;101640.81;7396312;19;20028;-58
2023/02/10 08:19:46;;;;;;;4.13;1.73;;;;;;;6.03;100.00;101636.88;7399721;19;20457;-59
2023/02/10 08:22:13;;;;;;;0.30;0.30;;;;;;;5.88;100.00;101636.16;7396283;19;20026;-58
2023/02/10 08:24:39;;;;;;;4.47;0.55;;;;;;;5.99;100.00;101625.84;7395867;19;20019;-59
2023/02/10 08:27:05;;;;;;;0.30;0.30;;;;;;;6.08;100.00;101639.25;7396128;19;20018;-59
2023/02/10 08:29:32;;;;;;;1.02;0.73;;;;;;;6.08;100.00;101637.28;7396432;19;20014;-59
2023/02/10 08:31:58;;;;;;;1.25;1.15;;;;;;;6.06;100.00;101636.84;7395270;19;20392;-59
2023/02/10 08:34:24;;;;;;;1.17;0.68;;;;;;;6.18;100.00;101632.06;7395407;19;20011;-58
2023/02/10 08:36:50;;;;;;;5.90;2.00;;;;;;;6.17;100.00;101634.06;7394851;19;20007;-58
2023/02/10 08:39:17;;;;;;;1.05;0.85;;;;;;;6.29;100.00;101633.59;7395818;19;20025;-58
2023/02/10 08:41:43;;;;;;;1.20;0.60;;;;;;;6.49;100.00;101623.63;7394501;19;20074;-58
2023/02/10 08:44:12;;;;;;;2.13;1.85;;;;;;;6.61;100.00;101628.66;7394566;19;20402;-59
2023/02/10 08:46:38;;;;;;;0.70;0.55;;;;;;;6.77;100.00;101630.94;7396090;19;20097;-59
2023/02/10 08:49:04;;;;;;;6.53;1.80;;;;;;;6.81;100.00;101626.16;7393551;19;20384;-58
2023/02/10 08:51:32;;;;;;;2.92;0.45;;;;;;;6.91;100.00;101622.50;7395974;19;20070;-58
2023/02/10 08:54:03;;;;;;;0.32;0.30;;;;;;;6.83;100.00;101616.25;7397097;19;20017;-58
2023/02/10 08:56:29;;;;;;;2.47;0.70;;;;;;;6.51;100.00;101623.22;7394466;19;20010;-58
2023/02/10 08:58:55;;;;;;;0.35;0.35;;;;;;;6.13;100.00;101619.44;7395478;19;20010;-59
2023/02/10 09:01:28;;;;;;;0.30;0.30;;;;;;;6.30;100.00;101618.59;7396117;19;20043;-58
2023/02/10 09:03:55;;;;;;;0.70;0.70;;;;;;;6.63;100.00;101626.28;7399211;19;20074;-58
2023/02/10 09:06:25;;;;;;;2.47;1.25;;;;;;;6.24;100.00;101624.94;7396077;19;20015;-58
2023/02/10 09:08:52;;;;;;;0.60;0.57;;;;;;;5.91;100.00;101617.97;7400545;19;20011;-58
2023/02/10 09:11:22;;;;;;;9.23;0.75;;;;;;;6.03;100.00;101618.31;7398743;19;20293;-58
2023/02/10 09:13:50;;;;;;;28.45;1.15;;;;;;;6.00;100.00;101626.59;7396158;19;20014;-58
2023/02/10 09:16:16;;;;;;;0.50;0.50;;;;;;;5.81;100.00;101630.59;7392834;19;20014;-58
2023/02/10 09:18:42;;;;;;;3.75;1.35;;;;;;;5.80;100.00;101631.81;7395040;19;20363;-58
2023/02/10 09:21:09;;;;;;;0.60;0.45;;;;;;;5.83;100.00;101625.47;7395665;19;20037;-58
2023/02/10 09:23:36;;;;;;;7.75;1.58;;;;;;;6.15;100.00;101627.34;7395215;19;20086;-58
2023/02/10 09:26:03;;;;;;;5.35;1.23;;;;;;;6.06;100.00;101625.03;7397098;19;20042;-58
2023/02/10 09:28:30;;;;;;;2.05;0.45;;;;;;;6.52;100.00;101627.56;7392687;19;20018;-58
2023/02/10 09:30:56;;;;;;;0.73;0.73;;;;;;;6.29;100.00;101630.03;7395390;19;20018;-58
2023/02/10 09:33:22;;;;;;;0.50;0.50;;;;;;;6.18;100.00;101632.06;7397252;19;20003;-58
2023/02/10 09:35:49;;;;;;;2.08;0.70;;;;;;;6.21;100.00;101631.28;7397691;19;20011;-58
2023/02/10 09:38:15;;;;;;;2.55;0.88;;;;;;;6.40;100.00;101623.28;7398954;19;20502;-58
2023/02/10 09:40:50;;;;;;;2.58;0.73;;;;;;;6.38;100.00;101631.19;7397607;19;20019;-58
2023/02/10 09:43:25;;;;;;;0.15;0.15;;;;;;;8.70;100.00;101632.81;7392695;19;20018;-58
2023/02/10 09:46:00;;;;;;;0.90;0.90;;;;;;;6.88;100.00;101626.91;7394645;19;20006;-58
2023/02/10 09:49:19;;;;;;;0.60;0.60;;;;;;;7.30;100.00;101631.28;7395521;19;20026;-58
2023/02/10 09:51:56;;;;;;;0.63;0.30;;;;;;;7.99;100.00;101627.41;7393781;19;20062;-58
2023/02/10 09:54:22;;;;;;;2.55;0.68;;;;;;;8.33;100.00;101615.09;7397005;19;20117;-58
2023/02/10 09:56:49;;;;;;;9.90;1.73;;;;;;;7.16;100.00;101617.56;7394006;19;20070;-58
2023/02/10 09:59:21;;;;;;;6.47;2.13;;;;;;;7.08;100.00;101618.81;7393325;19;20026;-58
2023/02/10 10:01:55;;;;;;;1.85;1.08;;;;;;;7.19;100.00;101619.50;7393913;19;20022;-57
2023/02/10 10:04:22;;;;;;;5.05;1.67;;;;;;;6.88;100.00;101626.13;7393572;19;20011;-57
2023/02/10 10:06:52;;;;;;;14.18;1.75;;;;;;;7.12;100.00;101621.56;7394577;19;20010;-57
2023/02/10 10:09:32;;;;;;;9.88;2.15;;;;;;;7.45;100.00;101616.09;7392710;19;20003;-58
2023/02/10 10:11:59;;;;;;;1.52;0.60;;;;;;;7.08;100.00;101607.72;7394175;19;20015;-58
2023/02/10 10:14:27;;;;;;;7.35;1.35;;;;;;;7.97;100.00;101615.94;7393282;19;20010;-57
2023/02/10 10:17:21;;;;;;;0.90;0.90;;;;;;;11.59;100.00;101615.59;7393539;19;20082;-57
2023/02/10 10:20:30;;;;;;;2.47;1.35;;;;;;;9.65;100.00;101614.50;7398346;19;20018;-57
2023/02/10 10:23:35;;;;;;;0.73;0.52;;;;;;;8.62;100.00;101620.25;7393886;19;20033;-58
2023/02/10 10:26:13;;;;;;;0.55;0.55;;;;;;;8.30;100.00;101626.22;7393486;19;20018;-58
2023/02/10 10:29:07;;;;;;;0.35;0.30;;;;;;;8.94;100.00;101614.97;7393756;19;20015;-58
2023/02/10 10:31:37;;;;;;;1.40;0.73;;;;;;;9.97;100.00;101614.66;7394331;19;20074;-57
2023/02/10 10:34:12;;;;;;;7.03;0.65;;;;;;;10.41;100.00;101622.50;7392949;19;20021;-57
2023/02/10 10:36:47;;;;;;;0.28;0.28;;;;;;;9.40;100.00;101619.75;7396299;19;20029;-58
2023/02/10 10:39:37;;;;;;;3.05;1.00;;;;;;;9.40;100.00;101614.97;7394778;19;20356;-57
2023/02/10 10:42:46;;;;;;;1.15;0.80;;;;;;;10.24;100.00;101623.69;7403940;19;20039;-57
2023/02/10 10:45:19;;;;;;;1.13;0.47;;;;;;;9.01;100.00;101615.63;7395978;19;20494;-57
2023/02/10 10:47:52;;;;;;;3.20;1.35;;;;;;;8.76;100.00;101626.38;7398519;19;20064;-58
2023/02/10 10:50:21;;;;;;;9.68;2.28;;;;;;;8.92;100.00;101628.50;7401440;19;20014;-57
2023/02/10 10:52:51;;;;;;;0.50;0.28;;;;;;;9.14;100.00;101624.94;7400304;19;20510;-58
2023/02/10 10:55:32;;;;;;;7.32;1.05;;;;;;;9.46;100.00;101620.84;7403930;19;20010;-57
2023/02/10 10:58:01;;;;;;;0.17;0.17;;;;;;;9.53;100.00;101629.06;7399406;19;20503;-57
2023/02/10 11:00:29;;;;;;;0.20;0.20;;;;;;;8.99;100.00;101628.38;7403265;19;20022;-57
2023/02/10 11:02:59;;;;;;;0.40;0.40;;;;;;;8.86;100.00;101636.50;7401932;19;20014;-57
2023/02/10 11:05:35;;;;;;;1.30;0.55;;;;;;;8.93;100.00;101636.41;7397766;19;20026;-57
2023/02/10 11:08:05;;;;;;;0.47;0.40;;;;;;;8.93;100.00;101639.19;7402672;19;20015;-58
2023/02/10 11:10:39;;;;;;;8.00;0.47;;;;;;;8.87;100.00;101632.53;7402976;19;20027;-57
2023/02/10 11:13:17;;;;;;;3.05;0.82;;;;;;;9.18;100.00;101632.44;7399394;19;20015;-58
2023/02/10 11:15:45;;;;;;;0.30;0.20;;;;;;;9.18;100.00;101621.34;7399201;19;20082;-57
2023/02/10 11:18:20;;;;;;;0.77;0.77;;;;;;;9.25;100.00;101635.13;7399548;19;20010;-58
2023/02/10 11:20:58;;;;;;;1.65;0.75;;;;;;;9.46;100.00;101634.75;7401979;19;20499;-58
2023/02/10 11:23:27;;;;;;;0.43;0.43;;;;;;;9.34;100.00;101627.00;7398714;19;20018;-58
2023/02/10 11:25:56;;;;;;;3.65;0.82;;;;;;;9.16;100.00;101618.94;7401736;19;20053;-58
2023/02/10 11:28:27;;;;;;;0.65;0.30;;;;;;;9.20;100.00;101616.13;7398977;19;20015;-57
2023/02/10 11:30:58;;;;;;;0.65;0.50;;;;;;;9.18;100.00;101614.53;7402995;19;20017;-61
2023/02/10 11:33:27;;;;;;;;;;;;;;;9.01;100.00;101612.06;7400299;19;20006;-61
2023/02/10 11:36:01;;;;;;;3.08;2.10;;;;;;;9.07;100.00;101613.94;7399523;19;19925;-61